sensor_id;sensor_type;location;lat;lon;timestamp;P1;durP1;ratioP1;P2;durP2;ratioP2
46318;SDS011;32042;50.916;2.926;2023-04-03T00:02:16;13.43;;;9.30;;
46318;SDS011;32042;50.916;2.926;2023-04-03T00:04:42;12.47;;;10.00;;
46318;SDS011;32042;50.916;2.926;2023-04-03T00:07:08;12.53;;;9.67;;
46318;SDS011;32042;50.916;2.926;2023-04-03T00:09:33;10.97;;;9.27;;
46318;SDS011;32042;50.916;2.926;2023-04-03T00:11:59;14.30;;;8.30;;
46318;SDS011;32042;50.916;2.926;2023-04-03T00:14:25;14.40;;;9.13;;
46318;SDS011;32042;50.916;2.926;2023-04-03T00:16:52;11.13;;;9.00;;
46318;SDS011;32042;50.916;2.926;2023-04-03T00:19:18;12.57;;;9.20;;
46318;SDS011;32042;50.916;2.926;2023-04-03T00:21:43;14.37;;;9.87;;
46318;SDS011;32042;50.916;2.926;2023-04-03T00:24:09;10.47;;;9.47;;
46318;SDS011;32042;50.916;2.926;2023-04-03T00:26:35;11.73;;;9.30;;
46318;SDS011;32042;50.916;2.926;2023-04-03T00:29:00;16.60;;;9.90;;
46318;SDS011;32042;50.916;2.926;2023-04-03T00:31:26;12.43;;;9.03;;
46318;SDS011;32042;50.916;2.926;2023-04-03T00:33:52;12.30;;;8.73;;
46318;SDS011;32042;50.916;2.926;2023-04-03T00:36:17;11.40;;;8.97;;
46318;SDS011;32042;50.916;2.926;2023-04-03T00:38:43;13.03;;;8.30;;
46318;SDS011;32042;50.916;2.926;2023-04-03T00:41:09;9.07;;;8.17;;
46318;SDS011;32042;50.916;2.926;2023-04-03T00:43:35;10.63;;;9.17;;
46318;SDS011;32042;50.916;2.926;2023-04-03T00:46:00;12.10;;;8.80;;
46318;SDS011;32042;50.916;2.926;2023-04-03T00:48:34;14.57;;;8.87;;
46318;SDS011;32042;50.916;2.926;2023-04-03T00:51:13;12.00;;;8.57;;
46318;SDS011;32042;50.916;2.926;2023-04-03T00:53:46;11.83;;;9.07;;
46318;SDS011;32042;50.916;2.926;2023-04-03T00:56:16;10.77;;;9.60;;
46318;SDS011;32042;50.916;2.926;2023-04-03T00:58:54;14.43;;;9.00;;
46318;SDS011;32042;50.916;2.926;2023-04-03T01:01:25;15.50;;;9.63;;
46318;SDS011;32042;50.916;2.926;2023-04-03T01:03:53;10.00;;;9.00;;
46318;SDS011;32042;50.916;2.926;2023-04-03T01:06:20;11.90;;;9.07;;
46318;SDS011;32042;50.916;2.926;2023-04-03T01:08:50;13.67;;;9.40;;
46318;SDS011;32042;50.916;2.926;2023-04-03T01:11:16;10.77;;;9.63;;
46318;SDS011;32042;50.916;2.926;2023-04-03T01:13:42;11.97;;;10.07;;
46318;SDS011;32042;50.916;2.926;2023-04-03T01:16:08;13.67;;;9.33;;
46318;SDS011;32042;50.916;2.926;2023-04-03T01:18:36;11.90;;;10.17;;
46318;SDS011;32042;50.916;2.926;2023-04-03T01:26:25;11.30;;;9.97;;
46318;SDS011;32042;50.916;2.926;2023-04-03T01:28:50;11.33;;;9.37;;
46318;SDS011;32042;50.916;2.926;2023-04-03T01:33:45;12.93;;;9.27;;
46318;SDS011;32042;50.916;2.926;2023-04-03T01:36:13;12.40;;;9.63;;
46318;SDS011;32042;50.916;2.926;2023-04-03T01:38:42;11.33;;;9.47;;
46318;SDS011;32042;50.916;2.926;2023-04-03T01:41:08;11.03;;;9.93;;
46318;SDS011;32042;50.916;2.926;2023-04-03T01:43:34;13.53;;;10.53;;
46318;SDS011;32042;50.916;2.926;2023-04-03T01:45:59;12.87;;;10.17;;
46318;SDS011;32042;50.916;2.926;2023-04-03T01:48:25;13.23;;;10.17;;
46318;SDS011;32042;50.916;2.926;2023-04-03T01:50:51;11.57;;;10.00;;
46318;SDS011;32042;50.916;2.926;2023-04-03T01:53:16;12.13;;;9.77;;
46318;SDS011;32042;50.916;2.926;2023-04-03T01:55:42;15.20;;;10.00;;
46318;SDS011;32042;50.916;2.926;2023-04-03T01:58:08;11.03;;;9.93;;
46318;SDS011;32042;50.916;2.926;2023-04-03T02:00:33;11.60;;;9.93;;
46318;SDS011;32042;50.916;2.926;2023-04-03T02:02:59;14.50;;;10.17;;
46318;SDS011;32042;50.916;2.926;2023-04-03T02:05:25;13.27;;;11.17;;
46318;SDS011;32042;50.916;2.926;2023-04-03T02:07:51;14.13;;;10.43;;
46318;SDS011;32042;50.916;2.926;2023-04-03T02:10:16;19.57;;;11.33;;
46318;SDS011;32042;50.916;2.926;2023-04-03T02:12:42;11.57;;;10.23;;
46318;SDS011;32042;50.916;2.926;2023-04-03T02:15:08;13.33;;;10.60;;
46318;SDS011;32042;50.916;2.926;2023-04-03T02:17:34;11.40;;;10.17;;
46318;SDS011;32042;50.916;2.926;2023-04-03T02:20:00;16.63;;;10.87;;
46318;SDS011;32042;50.916;2.926;2023-04-03T02:22:26;13.57;;;10.17;;
46318;SDS011;32042;50.916;2.926;2023-04-03T02:24:52;12.27;;;10.37;;
46318;SDS011;32042;50.916;2.926;2023-04-03T02:27:17;11.30;;;10.17;;
46318;SDS011;32042;50.916;2.926;2023-04-03T02:29:43;12.57;;;10.63;;
46318;SDS011;32042;50.916;2.926;2023-04-03T02:32:09;15.70;;;10.43;;
46318;SDS011;32042;50.916;2.926;2023-04-03T02:34:36;10.53;;;9.60;;
46318;SDS011;32042;50.916;2.926;2023-04-03T02:37:03;11.90;;;9.53;;
46318;SDS011;32042;50.916;2.926;2023-04-03T02:39:29;11.70;;;9.83;;
46318;SDS011;32042;50.916;2.926;2023-04-03T02:41:55;12.00;;;9.57;;
46318;SDS011;32042;50.916;2.926;2023-04-03T02:44:22;14.20;;;9.80;;
46318;SDS011;32042;50.916;2.926;2023-04-03T02:46:49;13.13;;;10.13;;
46318;SDS011;32042;50.916;2.926;2023-04-03T02:49:16;11.53;;;10.43;;
46318;SDS011;32042;50.916;2.926;2023-04-03T02:51:42;11.40;;;10.27;;
46318;SDS011;32042;50.916;2.926;2023-04-03T02:54:09;12.20;;;9.60;;
46318;SDS011;32042;50.916;2.926;2023-04-03T02:56:35;13.43;;;10.07;;
46318;SDS011;32042;50.916;2.926;2023-04-03T02:59:01;10.47;;;9.47;;
46318;SDS011;32042;50.916;2.926;2023-04-03T03:01:26;12.87;;;10.63;;
46318;SDS011;32042;50.916;2.926;2023-04-03T03:03:56;11.80;;;9.97;;
46318;SDS011;32042;50.916;2.926;2023-04-03T03:06:22;13.23;;;10.03;;
46318;SDS011;32042;50.916;2.926;2023-04-03T03:08:48;14.00;;;10.30;;
46318;SDS011;32042;50.916;2.926;2023-04-03T03:11:14;11.77;;;9.07;;
46318;SDS011;32042;50.916;2.926;2023-04-03T03:13:40;12.43;;;10.07;;
46318;SDS011;32042;50.916;2.926;2023-04-03T03:16:05;11.70;;;9.87;;
46318;SDS011;32042;50.916;2.926;2023-04-03T03:18:31;10.17;;;9.17;;
46318;SDS011;32042;50.916;2.926;2023-04-03T03:20:58;10.87;;;9.87;;
46318;SDS011;32042;50.916;2.926;2023-04-03T03:23:26;13.87;;;10.73;;
46318;SDS011;32042;50.916;2.926;2023-04-03T03:25:57;16.30;;;10.80;;
46318;SDS011;32042;50.916;2.926;2023-04-03T03:28:28;15.30;;;10.40;;
46318;SDS011;32042;50.916;2.926;2023-04-03T03:30:54;12.80;;;10.47;;
46318;SDS011;32042;50.916;2.926;2023-04-03T03:33:20;13.47;;;9.67;;
46318;SDS011;32042;50.916;2.926;2023-04-03T03:35:45;16.57;;;10.37;;
46318;SDS011;32042;50.916;2.926;2023-04-03T03:38:11;13.87;;;10.90;;
46318;SDS011;32042;50.916;2.926;2023-04-03T03:40:37;11.77;;;10.17;;
46318;SDS011;32042;50.916;2.926;2023-04-03T03:43:03;10.90;;;9.50;;
46318;SDS011;32042;50.916;2.926;2023-04-03T03:45:28;15.17;;;11.73;;
46318;SDS011;32042;50.916;2.926;2023-04-03T03:47:54;15.10;;;12.07;;
46318;SDS011;32042;50.916;2.926;2023-04-03T03:50:20;25.20;;;17.03;;
46318;SDS011;32042;50.916;2.926;2023-04-03T03:52:46;55.27;;;28.43;;
46318;SDS011;32042;50.916;2.926;2023-04-03T03:55:11;52.70;;;27.37;;
46318;SDS011;32042;50.916;2.926;2023-04-03T03:57:37;54.93;;;28.40;;
46318;SDS011;32042;50.916;2.926;2023-04-03T04:00:03;29.67;;;19.30;;
46318;SDS011;32042;50.916;2.926;2023-04-03T04:02:29;19.60;;;15.43;;
46318;SDS011;32042;50.916;2.926;2023-04-03T04:04:55;14.30;;;12.10;;
46318;SDS011;32042;50.916;2.926;2023-04-03T04:07:21;16.10;;;12.00;;
46318;SDS011;32042;50.916;2.926;2023-04-03T04:09:47;12.33;;;10.43;;
46318;SDS011;32042;50.916;2.926;2023-04-03T04:12:13;12.23;;;10.57;;
46318;SDS011;32042;50.916;2.926;2023-04-03T04:14:38;12.60;;;11.30;;
46318;SDS011;32042;50.916;2.926;2023-04-03T04:17:04;13.97;;;11.43;;
46318;SDS011;32042;50.916;2.926;2023-04-03T04:19:30;13.97;;;11.27;;
46318;SDS011;32042;50.916;2.926;2023-04-03T04:21:55;13.50;;;11.60;;
46318;SDS011;32042;50.916;2.926;2023-04-03T04:24:21;15.00;;;12.57;;
46318;SDS011;32042;50.916;2.926;2023-04-03T04:26:47;17.20;;;13.87;;
46318;SDS011;32042;50.916;2.926;2023-04-03T04:29:13;14.87;;;12.63;;
46318;SDS011;32042;50.916;2.926;2023-04-03T04:31:39;14.20;;;12.70;;
46318;SDS011;32042;50.916;2.926;2023-04-03T04:34:05;16.87;;;12.00;;
46318;SDS011;32042;50.916;2.926;2023-04-03T04:36:30;17.87;;;12.93;;
46318;SDS011;32042;50.916;2.926;2023-04-03T04:38:56;16.10;;;14.00;;
46318;SDS011;32042;50.916;2.926;2023-04-03T04:41:23;17.83;;;15.03;;
46318;SDS011;32042;50.916;2.926;2023-04-03T04:43:49;16.90;;;15.20;;
46318;SDS011;32042;50.916;2.926;2023-04-03T04:46:15;16.73;;;15.03;;
46318;SDS011;32042;50.916;2.926;2023-04-03T04:48:41;15.73;;;14.10;;
46318;SDS011;32042;50.916;2.926;2023-04-03T04:51:06;16.90;;;13.83;;
46318;SDS011;32042;50.916;2.926;2023-04-03T04:53:32;15.10;;;13.50;;
46318;SDS011;32042;50.916;2.926;2023-04-03T04:55:58;16.47;;;13.10;;
46318;SDS011;32042;50.916;2.926;2023-04-03T04:58:24;18.03;;;13.03;;
46318;SDS011;32042;50.916;2.926;2023-04-03T05:00:57;16.00;;;13.13;;
46318;SDS011;32042;50.916;2.926;2023-04-03T05:03:27;15.17;;;13.10;;
46318;SDS011;32042;50.916;2.926;2023-04-03T05:05:53;15.83;;;13.60;;
46318;SDS011;32042;50.916;2.926;2023-04-03T05:08:19;14.90;;;13.20;;
46318;SDS011;32042;50.916;2.926;2023-04-03T05:10:45;14.90;;;12.17;;
46318;SDS011;32042;50.916;2.926;2023-04-03T05:13:11;15.43;;;12.03;;
46318;SDS011;32042;50.916;2.926;2023-04-03T05:15:37;16.40;;;12.13;;
46318;SDS011;32042;50.916;2.926;2023-04-03T05:18:03;15.37;;;13.43;;
46318;SDS011;32042;50.916;2.926;2023-04-03T05:20:30;21.17;;;13.83;;
46318;SDS011;32042;50.916;2.926;2023-04-03T05:22:56;18.27;;;12.67;;
46318;SDS011;32042;50.916;2.926;2023-04-03T05:25:22;16.03;;;12.73;;
46318;SDS011;32042;50.916;2.926;2023-04-03T05:27:48;15.67;;;12.77;;
46318;SDS011;32042;50.916;2.926;2023-04-03T05:30:14;12.97;;;11.57;;
46318;SDS011;32042;50.916;2.926;2023-04-03T05:32:40;13.57;;;11.70;;
46318;SDS011;32042;50.916;2.926;2023-04-03T05:35:06;18.57;;;12.10;;
46318;SDS011;32042;50.916;2.926;2023-04-03T05:37:32;15.90;;;11.73;;
46318;SDS011;32042;50.916;2.926;2023-04-03T05:39:58;16.10;;;12.37;;
46318;SDS011;32042;50.916;2.926;2023-04-03T05:42:24;17.30;;;12.67;;
46318;SDS011;32042;50.916;2.926;2023-04-03T05:44:50;16.60;;;12.57;;
46318;SDS011;32042;50.916;2.926;2023-04-03T05:47:16;15.80;;;11.90;;
46318;SDS011;32042;50.916;2.926;2023-04-03T05:49:42;12.73;;;11.50;;
46318;SDS011;32042;50.916;2.926;2023-04-03T05:52:30;12.13;;;10.90;;
46318;SDS011;32042;50.916;2.926;2023-04-03T05:54:58;15.03;;;11.37;;
46318;SDS011;32042;50.916;2.926;2023-04-03T05:57:24;11.83;;;10.33;;
46318;SDS011;32042;50.916;2.926;2023-04-03T05:59:50;18.37;;;12.17;;
46318;SDS011;32042;50.916;2.926;2023-04-03T06:02:17;13.53;;;11.00;;
46318;SDS011;32042;50.916;2.926;2023-04-03T06:04:45;15.03;;;12.13;;
46318;SDS011;32042;50.916;2.926;2023-04-03T06:07:15;14.30;;;11.33;;
46318;SDS011;32042;50.916;2.926;2023-04-03T06:09:42;17.20;;;11.50;;
46318;SDS011;32042;50.916;2.926;2023-04-03T06:12:08;12.47;;;10.70;;
46318;SDS011;32042;50.916;2.926;2023-04-03T06:14:34;12.67;;;10.63;;
46318;SDS011;32042;50.916;2.926;2023-04-03T06:17:00;12.70;;;10.83;;
46318;SDS011;32042;50.916;2.926;2023-04-03T06:19:26;15.57;;;10.47;;
46318;SDS011;32042;50.916;2.926;2023-04-03T06:21:52;13.87;;;9.93;;
46318;SDS011;32042;50.916;2.926;2023-04-03T06:24:18;11.47;;;9.87;;
46318;SDS011;32042;50.916;2.926;2023-04-03T06:26:46;14.07;;;10.60;;
46318;SDS011;32042;50.916;2.926;2023-04-03T06:29:12;12.20;;;9.23;;
46318;SDS011;32042;50.916;2.926;2023-04-03T06:31:39;12.63;;;9.80;;
46318;SDS011;32042;50.916;2.926;2023-04-03T06:34:05;10.30;;;9.20;;
46318;SDS011;32042;50.916;2.926;2023-04-03T06:36:32;11.30;;;9.40;;
46318;SDS011;32042;50.916;2.926;2023-04-03T06:38:58;10.43;;;9.17;;
46318;SDS011;32042;50.916;2.926;2023-04-03T06:41:23;9.83;;;8.83;;
46318;SDS011;32042;50.916;2.926;2023-04-03T06:43:50;10.43;;;9.43;;
46318;SDS011;32042;50.916;2.926;2023-04-03T06:46:16;10.83;;;8.40;;
46318;SDS011;32042;50.916;2.926;2023-04-03T06:48:43;10.63;;;8.50;;
46318;SDS011;32042;50.916;2.926;2023-04-03T06:51:30;9.40;;;8.40;;
46318;SDS011;32042;50.916;2.926;2023-04-03T06:53:57;13.37;;;7.97;;
46318;SDS011;32042;50.916;2.926;2023-04-03T06:56:24;7.73;;;7.00;;
46318;SDS011;32042;50.916;2.926;2023-04-03T06:58:51;9.23;;;8.30;;
46318;SDS011;32042;50.916;2.926;2023-04-03T07:01:19;10.33;;;7.83;;
46318;SDS011;32042;50.916;2.926;2023-04-03T07:03:45;7.50;;;6.73;;
46318;SDS011;32042;50.916;2.926;2023-04-03T07:06:13;8.20;;;7.40;;
46318;SDS011;32042;50.916;2.926;2023-04-03T07:08:40;11.77;;;7.60;;
46318;SDS011;32042;50.916;2.926;2023-04-03T07:11:06;8.03;;;7.23;;
46318;SDS011;32042;50.916;2.926;2023-04-03T07:13:32;10.10;;;6.83;;
46318;SDS011;32042;50.916;2.926;2023-04-03T07:15:58;7.70;;;7.00;;
46318;SDS011;32042;50.916;2.926;2023-04-03T07:18:24;10.53;;;6.33;;
46318;SDS011;32042;50.916;2.926;2023-04-03T07:20:50;7.67;;;6.23;;
46318;SDS011;32042;50.916;2.926;2023-04-03T07:23:16;6.60;;;5.60;;
46318;SDS011;32042;50.916;2.926;2023-04-03T07:25:43;7.63;;;4.83;;
46318;SDS011;32042;50.916;2.926;2023-04-03T07:28:09;6.20;;;5.23;;
46318;SDS011;32042;50.916;2.926;2023-04-03T07:30:41;5.30;;;4.83;;
46318;SDS011;32042;50.916;2.926;2023-04-03T07:33:11;5.00;;;4.50;;
46318;SDS011;32042;50.916;2.926;2023-04-03T07:35:39;5.57;;;4.97;;
46318;SDS011;32042;50.916;2.926;2023-04-03T07:38:05;5.40;;;3.90;;
46318;SDS011;32042;50.916;2.926;2023-04-03T07:40:31;5.73;;;3.80;;
46318;SDS011;32042;50.916;2.926;2023-04-03T07:42:57;6.63;;;4.37;;
46318;SDS011;32042;50.916;2.926;2023-04-03T07:45:23;7.40;;;3.70;;
46318;SDS011;32042;50.916;2.926;2023-04-03T07:47:49;4.17;;;3.73;;
46318;SDS011;32042;50.916;2.926;2023-04-03T07:50:15;3.87;;;3.47;;
46318;SDS011;32042;50.916;2.926;2023-04-03T07:52:41;3.90;;;3.27;;
46318;SDS011;32042;50.916;2.926;2023-04-03T07:55:07;4.03;;;3.17;;
46318;SDS011;32042;50.916;2.926;2023-04-03T07:57:33;4.80;;;3.20;;
46318;SDS011;32042;50.916;2.926;2023-04-03T07:59:59;3.10;;;2.77;;
46318;SDS011;32042;50.916;2.926;2023-04-03T08:02:25;4.27;;;2.90;;
46318;SDS011;32042;50.916;2.926;2023-04-03T08:04:50;3.87;;;2.93;;
46318;SDS011;32042;50.916;2.926;2023-04-03T08:07:16;5.67;;;3.00;;
46318;SDS011;32042;50.916;2.926;2023-04-03T08:09:41;3.30;;;3.00;;
46318;SDS011;32042;50.916;2.926;2023-04-03T08:12:07;2.77;;;2.47;;
46318;SDS011;32042;50.916;2.926;2023-04-03T08:14:33;2.90;;;2.63;;
46318;SDS011;32042;50.916;2.926;2023-04-03T08:17:01;3.83;;;2.23;;
46318;SDS011;32042;50.916;2.926;2023-04-03T08:19:29;4.40;;;2.67;;
46318;SDS011;32042;50.916;2.926;2023-04-03T08:21:56;4.10;;;3.43;;
46318;SDS011;32042;50.916;2.926;2023-04-03T08:24:23;4.40;;;4.00;;
46318;SDS011;32042;50.916;2.926;2023-04-03T08:26:50;3.90;;;3.00;;
46318;SDS011;32042;50.916;2.926;2023-04-03T08:29:15;2.63;;;2.00;;
46318;SDS011;32042;50.916;2.926;2023-04-03T08:31:41;5.20;;;2.10;;
46318;SDS011;32042;50.916;2.926;2023-04-03T08:34:07;2.87;;;2.50;;
46318;SDS011;32042;50.916;2.926;2023-04-03T08:36:33;5.50;;;2.00;;
46318;SDS011;32042;50.916;2.926;2023-04-03T08:38:59;3.40;;;2.13;;
46318;SDS011;32042;50.916;2.926;2023-04-03T08:44:11;3.57;;;2.10;;
46318;SDS011;32042;50.916;2.926;2023-04-03T08:49:53;4.17;;;2.60;;
46318;SDS011;32042;50.916;2.926;2023-04-03T08:52:31;5.00;;;2.83;;
46318;SDS011;32042;50.916;2.926;2023-04-03T08:55:26;4.20;;;3.07;;
46318;SDS011;32042;50.916;2.926;2023-04-03T08:58:18;3.90;;;3.10;;
46318;SDS011;32042;50.916;2.926;2023-04-03T09:00:51;6.73;;;2.90;;
46318;SDS011;32042;50.916;2.926;2023-04-03T09:03:41;13.37;;;2.90;;
46318;SDS011;32042;50.916;2.926;2023-04-03T09:08:43;4.33;;;2.83;;
46318;SDS011;32042;50.916;2.926;2023-04-03T09:24:50;6.20;;;4.20;;
46318;SDS011;32042;50.916;2.926;2023-04-03T09:27:28;6.43;;;4.60;;
46318;SDS011;32042;50.916;2.926;2023-04-03T09:29:55;7.17;;;5.50;;
46318;SDS011;32042;50.916;2.926;2023-04-03T09:32:29;7.23;;;5.10;;
46318;SDS011;32042;50.916;2.926;2023-04-03T09:34:58;5.47;;;4.80;;
46318;SDS011;32042;50.916;2.926;2023-04-03T09:37:52;8.27;;;5.60;;
46318;SDS011;32042;50.916;2.926;2023-04-03T09:40:28;7.77;;;4.60;;
46318;SDS011;32042;50.916;2.926;2023-04-03T09:42:57;5.37;;;4.87;;
46318;SDS011;32042;50.916;2.926;2023-04-03T09:45:29;11.47;;;5.40;;
46318;SDS011;32042;50.916;2.926;2023-04-03T09:50:34;5.57;;;4.40;;
46318;SDS011;32042;50.916;2.926;2023-04-03T09:53:11;5.83;;;3.97;;
46318;SDS011;32042;50.916;2.926;2023-04-03T09:55:58;7.20;;;4.07;;
46318;SDS011;32042;50.916;2.926;2023-04-03T09:58:27;7.07;;;4.47;;
46318;SDS011;32042;50.916;2.926;2023-04-03T10:00:56;5.53;;;4.43;;
46318;SDS011;32042;50.916;2.926;2023-04-03T10:05:58;6.20;;;4.40;;
46318;SDS011;32042;50.916;2.926;2023-04-03T10:08:30;5.77;;;4.40;;
46318;SDS011;32042;50.916;2.926;2023-04-03T10:11:16;10.03;;;5.17;;
46318;SDS011;32042;50.916;2.926;2023-04-03T10:13:54;8.50;;;4.90;;
46318;SDS011;32042;50.916;2.926;2023-04-03T10:19:59;6.13;;;4.50;;
46318;SDS011;32042;50.916;2.926;2023-04-03T10:26:26;6.10;;;4.67;;
46318;SDS011;32042;50.916;2.926;2023-04-03T10:34:45;7.47;;;5.90;;
46318;SDS011;32042;50.916;2.926;2023-04-03T10:39:53;9.50;;;6.37;;
46318;SDS011;32042;50.916;2.926;2023-04-03T10:42:46;7.23;;;4.17;;
46318;SDS011;32042;50.916;2.926;2023-04-03T10:45:24;4.97;;;4.07;;
46318;SDS011;32042;50.916;2.926;2023-04-03T10:50:31;3.70;;;3.40;;
46318;SDS011;32042;50.916;2.926;2023-04-03T10:58:43;6.23;;;4.40;;
46318;SDS011;32042;50.916;2.926;2023-04-03T11:01:18;6.10;;;4.23;;
46318;SDS011;32042;50.916;2.926;2023-04-03T11:03:55;5.27;;;4.03;;
46318;SDS011;32042;50.916;2.926;2023-04-03T11:06:25;6.10;;;4.50;;
46318;SDS011;32042;50.916;2.926;2023-04-03T11:09:03;5.77;;;3.87;;
46318;SDS011;32042;50.916;2.926;2023-04-03T11:11:43;7.13;;;3.40;;
46318;SDS011;32042;50.916;2.926;2023-04-03T11:17:10;6.00;;;3.80;;
46318;SDS011;32042;50.916;2.926;2023-04-03T11:22:23;6.17;;;2.90;;
46318;SDS011;32042;50.916;2.926;2023-04-03T11:27:55;3.83;;;3.43;;
46318;SDS011;32042;50.916;2.926;2023-04-03T11:30:28;3.47;;;3.07;;
46318;SDS011;32042;50.916;2.926;2023-04-03T11:33:07;7.10;;;3.23;;
46318;SDS011;32042;50.916;2.926;2023-04-03T11:35:44;5.33;;;2.97;;
46318;SDS011;32042;50.916;2.926;2023-04-03T11:38:23;3.17;;;2.53;;
46318;SDS011;32042;50.916;2.926;2023-04-03T11:40:54;6.20;;;2.83;;
46318;SDS011;32042;50.916;2.926;2023-04-03T11:43:23;4.93;;;2.50;;
46318;SDS011;32042;50.916;2.926;2023-04-03T11:50:58;7.73;;;2.70;;
46318;SDS011;32042;50.916;2.926;2023-04-03T12:01:05;3.00;;;1.90;;
46318;SDS011;32042;50.916;2.926;2023-04-03T12:03:34;8.47;;;2.90;;
46318;SDS011;32042;50.916;2.926;2023-04-03T12:16:22;2.90;;;1.87;;
46318;SDS011;32042;50.916;2.926;2023-04-03T12:34:43;5.23;;;2.07;;
46318;SDS011;32042;50.916;2.926;2023-04-03T12:45:55;3.97;;;2.00;;
46318;SDS011;32042;50.916;2.926;2023-04-03T12:48:30;2.70;;;2.03;;
46318;SDS011;32042;50.916;2.926;2023-04-03T12:51:02;5.70;;;2.10;;
46318;SDS011;32042;50.916;2.926;2023-04-03T12:53:31;1.63;;;1.23;;
46318;SDS011;32042;50.916;2.926;2023-04-03T12:56:18;2.33;;;1.80;;
46318;SDS011;32042;50.916;2.926;2023-04-03T12:58:52;2.60;;;1.90;;
46318;SDS011;32042;50.916;2.926;2023-04-03T13:01:26;3.80;;;1.97;;
46318;SDS011;32042;50.916;2.926;2023-04-03T13:03:53;5.80;;;1.93;;
46318;SDS011;32042;50.916;2.926;2023-04-03T13:06:22;2.43;;;1.50;;
46318;SDS011;32042;50.916;2.926;2023-04-03T13:08:53;2.77;;;1.40;;
46318;SDS011;32042;50.916;2.926;2023-04-03T13:11:22;5.03;;;1.30;;
46318;SDS011;32042;50.916;2.926;2023-04-03T13:13:59;2.53;;;1.93;;
46318;SDS011;32042;50.916;2.926;2023-04-03T13:16:28;3.33;;;1.47;;
46318;SDS011;32042;50.916;2.926;2023-04-03T13:18:54;4.97;;;1.50;;
46318;SDS011;32042;50.916;2.926;2023-04-03T13:21:28;2.97;;;1.63;;
46318;SDS011;32042;50.916;2.926;2023-04-03T13:23:56;3.83;;;1.57;;
46318;SDS011;32042;50.916;2.926;2023-04-03T13:26:24;5.37;;;1.67;;
46318;SDS011;32042;50.916;2.926;2023-04-03T13:28:54;1.63;;;1.30;;
46318;SDS011;32042;50.916;2.926;2023-04-03T13:31:26;4.63;;;1.70;;
46318;SDS011;32042;50.916;2.926;2023-04-03T13:33:57;5.40;;;1.57;;
46318;SDS011;32042;50.916;2.926;2023-04-03T13:36:31;4.50;;;1.53;;
46318;SDS011;32042;50.916;2.926;2023-04-03T13:41:27;2.47;;;1.40;;
46318;SDS011;32042;50.916;2.926;2023-04-03T13:43:55;3.03;;;1.80;;
46318;SDS011;32042;50.916;2.926;2023-04-03T13:46:23;3.20;;;1.33;;
46318;SDS011;32042;50.916;2.926;2023-04-03T13:48:52;1.63;;;1.20;;
46318;SDS011;32042;50.916;2.926;2023-04-03T13:51:22;3.17;;;1.60;;
46318;SDS011;32042;50.916;2.926;2023-04-03T13:53:58;3.27;;;1.57;;
46318;SDS011;32042;50.916;2.926;2023-04-03T14:01:42;1.77;;;1.30;;
46318;SDS011;32042;50.916;2.926;2023-04-03T14:06:42;2.07;;;1.30;;
46318;SDS011;32042;50.916;2.926;2023-04-03T14:09:08;2.20;;;1.67;;
46318;SDS011;32042;50.916;2.926;2023-04-03T14:11:34;3.50;;;2.13;;
46318;SDS011;32042;50.916;2.926;2023-04-03T14:14:02;6.20;;;2.10;;
46318;SDS011;32042;50.916;2.926;2023-04-03T14:16:37;4.27;;;2.00;;
46318;SDS011;32042;50.916;2.926;2023-04-03T14:19:06;4.53;;;2.07;;
46318;SDS011;32042;50.916;2.926;2023-04-03T14:21:32;3.67;;;1.67;;
46318;SDS011;32042;50.916;2.926;2023-04-03T14:23:58;5.03;;;2.30;;
46318;SDS011;32042;50.916;2.926;2023-04-03T14:26:24;4.30;;;2.37;;
46318;SDS011;32042;50.916;2.926;2023-04-03T14:28:52;7.33;;;3.40;;
46318;SDS011;32042;50.916;2.926;2023-04-03T14:31:20;4.60;;;2.33;;
46318;SDS011;32042;50.916;2.926;2023-04-03T14:33:47;2.07;;;1.63;;
46318;SDS011;32042;50.916;2.926;2023-04-03T14:36:14;4.87;;;1.90;;
46318;SDS011;32042;50.916;2.926;2023-04-03T14:38:42;3.67;;;1.67;;
46318;SDS011;32042;50.916;2.926;2023-04-03T14:41:10;3.03;;;1.53;;
46318;SDS011;32042;50.916;2.926;2023-04-03T14:43:38;4.67;;;1.60;;
46318;SDS011;32042;50.916;2.926;2023-04-03T14:46:04;5.40;;;1.80;;
46318;SDS011;32042;50.916;2.926;2023-04-03T14:48:30;3.27;;;1.50;;
46318;SDS011;32042;50.916;2.926;2023-04-03T14:50:56;13.77;;;3.33;;
46318;SDS011;32042;50.916;2.926;2023-04-03T14:53:21;3.80;;;1.90;;
46318;SDS011;32042;50.916;2.926;2023-04-03T14:55:51;4.60;;;1.50;;
46318;SDS011;32042;50.916;2.926;2023-04-03T14:58:18;3.40;;;1.53;;
46318;SDS011;32042;50.916;2.926;2023-04-03T15:00:45;3.00;;;1.50;;
46318;SDS011;32042;50.916;2.926;2023-04-03T15:03:15;4.63;;;1.90;;
46318;SDS011;32042;50.916;2.926;2023-04-03T15:05:44;4.90;;;1.73;;
46318;SDS011;32042;50.916;2.926;2023-04-03T15:08:21;2.40;;;1.50;;
46318;SDS011;32042;50.916;2.926;2023-04-03T15:10:50;3.47;;;1.90;;
46318;SDS011;32042;50.916;2.926;2023-04-03T15:13:18;3.73;;;1.63;;
46318;SDS011;32042;50.916;2.926;2023-04-03T15:15:44;3.17;;;2.10;;
46318;SDS011;32042;50.916;2.926;2023-04-03T15:18:30;2.87;;;1.77;;
46318;SDS011;32042;50.916;2.926;2023-04-03T15:21:00;2.87;;;2.10;;
46318;SDS011;32042;50.916;2.926;2023-04-03T15:23:26;2.03;;;1.70;;
46318;SDS011;32042;50.916;2.926;2023-04-03T15:25:53;3.23;;;1.83;;
46318;SDS011;32042;50.916;2.926;2023-04-03T15:28:31;3.00;;;1.70;;
46318;SDS011;32042;50.916;2.926;2023-04-03T15:31:00;2.87;;;1.70;;
46318;SDS011;32042;50.916;2.926;2023-04-03T15:33:26;3.63;;;1.60;;
46318;SDS011;32042;50.916;2.926;2023-04-03T15:35:52;3.43;;;1.50;;
46318;SDS011;32042;50.916;2.926;2023-04-03T15:38:18;3.47;;;1.50;;
46318;SDS011;32042;50.916;2.926;2023-04-03T15:40:44;1.77;;;1.60;;
46318;SDS011;32042;50.916;2.926;2023-04-03T15:43:12;3.37;;;1.80;;
46318;SDS011;32042;50.916;2.926;2023-04-03T15:45:39;3.63;;;1.80;;
46318;SDS011;32042;50.916;2.926;2023-04-03T15:48:05;2.17;;;1.60;;
46318;SDS011;32042;50.916;2.926;2023-04-03T15:50:33;1.87;;;1.37;;
46318;SDS011;32042;50.916;2.926;2023-04-03T15:53:00;3.13;;;1.50;;
46318;SDS011;32042;50.916;2.926;2023-04-03T15:55:28;9.63;;;1.90;;
46318;SDS011;32042;50.916;2.926;2023-04-03T15:57:55;3.50;;;1.80;;
46318;SDS011;32042;50.916;2.926;2023-04-03T16:00:21;2.70;;;1.50;;
46318;SDS011;32042;50.916;2.926;2023-04-03T16:02:50;2.83;;;1.63;;
46318;SDS011;32042;50.916;2.926;2023-04-03T16:05:23;3.40;;;1.20;;
46318;SDS011;32042;50.916;2.926;2023-04-03T16:07:50;4.10;;;1.63;;
46318;SDS011;32042;50.916;2.926;2023-04-03T16:10:16;4.13;;;1.40;;
46318;SDS011;32042;50.916;2.926;2023-04-03T16:12:43;4.80;;;1.87;;
46318;SDS011;32042;50.916;2.926;2023-04-03T16:15:09;1.27;;;1.10;;
46318;SDS011;32042;50.916;2.926;2023-04-03T16:17:35;2.93;;;1.70;;
46318;SDS011;32042;50.916;2.926;2023-04-03T16:20:03;3.87;;;1.33;;
46318;SDS011;32042;50.916;2.926;2023-04-03T16:22:30;2.93;;;1.40;;
46318;SDS011;32042;50.916;2.926;2023-04-03T16:24:56;1.30;;;1.10;;
46318;SDS011;32042;50.916;2.926;2023-04-03T16:27:22;3.13;;;1.63;;
46318;SDS011;32042;50.916;2.926;2023-04-03T16:29:52;3.00;;;1.70;;
46318;SDS011;32042;50.916;2.926;2023-04-03T16:32:21;2.50;;;1.30;;
46318;SDS011;32042;50.916;2.926;2023-04-03T16:34:48;2.23;;;1.20;;
46318;SDS011;32042;50.916;2.926;2023-04-03T16:37:14;1.63;;;1.20;;
46318;SDS011;32042;50.916;2.926;2023-04-03T16:39:41;2.40;;;1.10;;
46318;SDS011;32042;50.916;2.926;2023-04-03T16:42:07;1.37;;;1.10;;
46318;SDS011;32042;50.916;2.926;2023-04-03T16:44:34;3.10;;;1.53;;
46318;SDS011;32042;50.916;2.926;2023-04-03T16:47:01;2.40;;;1.80;;
46318;SDS011;32042;50.916;2.926;2023-04-03T16:49:26;2.40;;;1.53;;
46318;SDS011;32042;50.916;2.926;2023-04-03T16:51:57;3.67;;;1.50;;